Ely Airport Yelland Field Ely US
ICAO: KELY
IATA: ELY
Category: Medium
Scheduled Services: No

Elevation: 6259 ft
TransAlt. 18000 ft.

Airport Communications:
ASOS:120.625
SALT LAKE CNTR:133.45
CTAF/UNICOM:122.8

KELY Zoom In..

If you have problems with the map follow the link
https://www.worldairports.se/pages/airport.php?
ICAO=KELY

Runways:

(A) RW 12 length 4825 ft width 60 ft
---- / hdg 127

(B) RW 18 length 6018 ft width 150 ft
---- / hdg 180

(C) RW 30 length 4825 ft width 60 ft
---- / hdg 307

(D) RW 36 length 6018 ft width 150 ft
---- / hdg 360

Location; KELY
Day. 13 / Time. 21.33 Zulu
* Altimeter: 30.05
* Temperature: 03° c. 37.4°f.
* Wind from: 160° Speed 08 kn.
Dewpoint: 01° c.
Visibility: 10 Statute Miles.
Clouds: Few 1900 ft.
Clouds: Broken 3000 ft.
Clouds: Overcast 3800 ft.
Conditions: Light Rain.

KELY 132133Z AUTO 16008KT 10SM -RA FEW019 BKN030 OVC038 03/01 A3005 RMK AO2 P0001 T00280006


Wind From 160°
Speed 08 kn.

 
 
jpsmedia worldairports.se 2019   terms of use